sensor_id;sensor_type;location;lat;lon;timestamp;P1;durP1;ratioP1;P2;durP2;ratioP2
41663;SDS011;27353;50.906;7.248;2023-12-20T00:02:18;21.02;;;12.55;;
41663;SDS011;27353;50.906;7.248;2023-12-20T00:04:43;21.20;;;13.68;;
41663;SDS011;27353;50.906;7.248;2023-12-20T00:07:09;18.88;;;11.88;;
41663;SDS011;27353;50.906;7.248;2023-12-20T00:09:35;20.08;;;12.40;;
41663;SDS011;27353;50.906;7.248;2023-12-20T00:12:00;24.90;;;15.88;;
41663;SDS011;27353;50.906;7.248;2023-12-20T00:14:26;17.23;;;11.93;;
41663;SDS011;27353;50.906;7.248;2023-12-20T00:16:51;24.52;;;16.38;;
41663;SDS011;27353;50.906;7.248;2023-12-20T00:19:17;23.85;;;14.50;;
41663;SDS011;27353;50.906;7.248;2023-12-20T00:21:43;22.20;;;14.23;;
41663;SDS011;27353;50.906;7.248;2023-12-20T00:24:08;23.45;;;13.23;;
41663;SDS011;27353;50.906;7.248;2023-12-20T00:26:34;16.50;;;10.43;;
41663;SDS011;27353;50.906;7.248;2023-12-20T00:29:00;14.27;;;10.73;;
41663;SDS011;27353;50.906;7.248;2023-12-20T00:31:25;19.63;;;13.43;;
41663;SDS011;27353;50.906;7.248;2023-12-20T00:33:51;15.65;;;10.95;;
41663;SDS011;27353;50.906;7.248;2023-12-20T00:36:17;18.40;;;12.55;;
41663;SDS011;27353;50.906;7.248;2023-12-20T00:38:42;16.65;;;12.40;;
41663;SDS011;27353;50.906;7.248;2023-12-20T00:41:08;20.25;;;13.43;;
41663;SDS011;27353;50.906;7.248;2023-12-20T00:43:34;20.50;;;12.77;;
41663;SDS011;27353;50.906;7.248;2023-12-20T00:46:00;15.38;;;10.40;;
41663;SDS011;27353;50.906;7.248;2023-12-20T00:48:25;19.65;;;11.50;;
41663;SDS011;27353;50.906;7.248;2023-12-20T00:50:56;19.77;;;13.32;;
41663;SDS011;27353;50.906;7.248;2023-12-20T00:53:22;17.52;;;11.70;;
41663;SDS011;27353;50.906;7.248;2023-12-20T00:55:48;15.90;;;9.85;;
41663;SDS011;27353;50.906;7.248;2023-12-20T00:58:15;12.55;;;7.22;;
41663;SDS011;27353;50.906;7.248;2023-12-20T01:00:40;11.15;;;7.10;;
41663;SDS011;27353;50.906;7.248;2023-12-20T01:03:08;7.03;;;5.15;;
41663;SDS011;27353;50.906;7.248;2023-12-20T01:05:33;8.75;;;6.03;;
41663;SDS011;27353;50.906;7.248;2023-12-20T01:07:59;7.13;;;5.50;;
41663;SDS011;27353;50.906;7.248;2023-12-20T01:10:24;7.78;;;5.00;;
41663;SDS011;27353;50.906;7.248;2023-12-20T01:12:53;7.80;;;6.13;;
41663;SDS011;27353;50.906;7.248;2023-12-20T01:15:18;8.90;;;6.03;;
41663;SDS011;27353;50.906;7.248;2023-12-20T01:17:44;8.35;;;5.35;;
41663;SDS011;27353;50.906;7.248;2023-12-20T01:20:10;10.00;;;6.47;;
41663;SDS011;27353;50.906;7.248;2023-12-20T01:22:36;15.38;;;7.60;;
41663;SDS011;27353;50.906;7.248;2023-12-20T01:25:01;16.23;;;9.23;;
41663;SDS011;27353;50.906;7.248;2023-12-20T01:27:27;11.63;;;7.35;;
41663;SDS011;27353;50.906;7.248;2023-12-20T01:29:54;13.23;;;9.07;;
41663;SDS011;27353;50.906;7.248;2023-12-20T01:32:19;11.23;;;7.88;;
41663;SDS011;27353;50.906;7.248;2023-12-20T01:34:45;16.65;;;9.75;;
41663;SDS011;27353;50.906;7.248;2023-12-20T01:37:11;17.88;;;10.43;;
41663;SDS011;27353;50.906;7.248;2023-12-20T01:39:36;14.73;;;9.70;;
41663;SDS011;27353;50.906;7.248;2023-12-20T01:42:02;13.32;;;9.18;;
41663;SDS011;27353;50.906;7.248;2023-12-20T01:44:28;12.00;;;8.52;;
41663;SDS011;27353;50.906;7.248;2023-12-20T01:46:53;16.75;;;10.23;;
41663;SDS011;27353;50.906;7.248;2023-12-20T01:49:19;15.90;;;9.27;;
41663;SDS011;27353;50.906;7.248;2023-12-20T01:51:46;15.25;;;8.88;;
41663;SDS011;27353;50.906;7.248;2023-12-20T01:54:12;14.45;;;10.10;;
41663;SDS011;27353;50.906;7.248;2023-12-20T01:56:38;17.08;;;9.77;;
41663;SDS011;27353;50.906;7.248;2023-12-20T01:59:05;12.35;;;7.85;;
41663;SDS011;27353;50.906;7.248;2023-12-20T02:01:32;12.18;;;7.70;;
41663;SDS011;27353;50.906;7.248;2023-12-20T02:03:58;10.95;;;7.05;;
41663;SDS011;27353;50.906;7.248;2023-12-20T02:06:25;11.25;;;6.65;;
41663;SDS011;27353;50.906;7.248;2023-12-20T02:08:56;11.77;;;8.40;;
41663;SDS011;27353;50.906;7.248;2023-12-20T02:11:23;17.35;;;8.90;;
41663;SDS011;27353;50.906;7.248;2023-12-20T02:13:50;13.13;;;8.13;;
41663;SDS011;27353;50.906;7.248;2023-12-20T02:16:15;19.77;;;9.60;;
41663;SDS011;27353;50.906;7.248;2023-12-20T02:18:42;16.25;;;9.90;;
41663;SDS011;27353;50.906;7.248;2023-12-20T02:21:09;19.42;;;10.27;;
41663;SDS011;27353;50.906;7.248;2023-12-20T02:23:35;20.27;;;10.13;;
41663;SDS011;27353;50.906;7.248;2023-12-20T02:26:01;16.75;;;10.20;;
41663;SDS011;27353;50.906;7.248;2023-12-20T02:28:27;17.73;;;9.95;;
41663;SDS011;27353;50.906;7.248;2023-12-20T02:30:53;21.10;;;10.82;;
41663;SDS011;27353;50.906;7.248;2023-12-20T02:33:19;20.27;;;11.27;;
41663;SDS011;27353;50.906;7.248;2023-12-20T02:35:44;16.38;;;9.27;;
41663;SDS011;27353;50.906;7.248;2023-12-20T02:38:10;21.98;;;11.82;;
41663;SDS011;27353;50.906;7.248;2023-12-20T02:40:36;24.45;;;11.18;;
41663;SDS011;27353;50.906;7.248;2023-12-20T02:43:01;18.10;;;12.80;;
41663;SDS011;27353;50.906;7.248;2023-12-20T02:45:27;22.17;;;10.82;;
41663;SDS011;27353;50.906;7.248;2023-12-20T02:47:53;17.50;;;12.38;;
41663;SDS011;27353;50.906;7.248;2023-12-20T02:50:18;21.10;;;10.73;;
41663;SDS011;27353;50.906;7.248;2023-12-20T02:52:44;16.92;;;8.88;;
41663;SDS011;27353;50.906;7.248;2023-12-20T02:55:10;13.13;;;8.65;;
41663;SDS011;27353;50.906;7.248;2023-12-20T02:57:36;17.02;;;8.82;;
41663;SDS011;27353;50.906;7.248;2023-12-20T03:00:06;18.77;;;8.68;;
41663;SDS011;27353;50.906;7.248;2023-12-20T03:02:34;19.20;;;10.30;;
41663;SDS011;27353;50.906;7.248;2023-12-20T03:04:59;16.50;;;8.63;;
41663;SDS011;27353;50.906;7.248;2023-12-20T03:07:25;14.55;;;6.85;;
41663;SDS011;27353;50.906;7.248;2023-12-20T03:09:51;15.82;;;8.48;;
41663;SDS011;27353;50.906;7.248;2023-12-20T03:12:16;14.63;;;8.30;;
41663;SDS011;27353;50.906;7.248;2023-12-20T03:14:43;38.78;;;10.55;;
41663;SDS011;27353;50.906;7.248;2023-12-20T03:17:09;13.65;;;7.75;;
41663;SDS011;27353;50.906;7.248;2023-12-20T03:19:35;15.15;;;7.97;;
41663;SDS011;27353;50.906;7.248;2023-12-20T03:22:01;13.15;;;7.53;;
41663;SDS011;27353;50.906;7.248;2023-12-20T03:24:26;12.07;;;7.15;;
41663;SDS011;27353;50.906;7.248;2023-12-20T03:26:52;16.90;;;7.78;;
41663;SDS011;27353;50.906;7.248;2023-12-20T03:29:18;15.50;;;8.02;;
41663;SDS011;27353;50.906;7.248;2023-12-20T03:31:44;15.63;;;7.75;;
41663;SDS011;27353;50.906;7.248;2023-12-20T03:34:10;15.32;;;6.45;;
41663;SDS011;27353;50.906;7.248;2023-12-20T03:36:36;15.57;;;6.30;;
41663;SDS011;27353;50.906;7.248;2023-12-20T03:39:02;10.50;;;5.07;;
41663;SDS011;27353;50.906;7.248;2023-12-20T03:41:28;8.50;;;5.47;;
41663;SDS011;27353;50.906;7.248;2023-12-20T03:43:54;16.75;;;5.68;;
41663;SDS011;27353;50.906;7.248;2023-12-20T03:46:19;9.18;;;5.18;;
41663;SDS011;27353;50.906;7.248;2023-12-20T03:48:45;15.02;;;4.88;;
41663;SDS011;27353;50.906;7.248;2023-12-20T03:51:11;17.52;;;5.78;;
41663;SDS011;27353;50.906;7.248;2023-12-20T03:53:37;14.10;;;5.78;;
41663;SDS011;27353;50.906;7.248;2023-12-20T03:56:03;14.35;;;4.80;;
41663;SDS011;27353;50.906;7.248;2023-12-20T03:58:28;16.25;;;3.90;;
41663;SDS011;27353;50.906;7.248;2023-12-20T04:00:54;8.93;;;4.78;;
41663;SDS011;27353;50.906;7.248;2023-12-20T04:03:20;9.18;;;5.78;;
41663;SDS011;27353;50.906;7.248;2023-12-20T04:05:45;16.70;;;4.47;;
41663;SDS011;27353;50.906;7.248;2023-12-20T04:08:11;13.18;;;4.32;;
41663;SDS011;27353;50.906;7.248;2023-12-20T04:10:37;10.15;;;5.35;;
41663;SDS011;27353;50.906;7.248;2023-12-20T04:13:03;15.48;;;4.80;;
41663;SDS011;27353;50.906;7.248;2023-12-20T04:15:29;13.65;;;6.47;;
41663;SDS011;27353;50.906;7.248;2023-12-20T04:17:55;20.42;;;6.57;;
41663;SDS011;27353;50.906;7.248;2023-12-20T04:20:20;18.55;;;8.80;;
41663;SDS011;27353;50.906;7.248;2023-12-20T04:22:46;12.50;;;7.10;;
41663;SDS011;27353;50.906;7.248;2023-12-20T04:25:12;13.77;;;6.57;;
41663;SDS011;27353;50.906;7.248;2023-12-20T04:27:37;18.63;;;9.93;;
41663;SDS011;27353;50.906;7.248;2023-12-20T04:30:03;24.23;;;9.48;;
41663;SDS011;27353;50.906;7.248;2023-12-20T04:32:29;17.70;;;9.50;;
41663;SDS011;27353;50.906;7.248;2023-12-20T04:34:55;15.77;;;7.30;;
41663;SDS011;27353;50.906;7.248;2023-12-20T04:37:20;15.07;;;6.60;;
41663;SDS011;27353;50.906;7.248;2023-12-20T04:39:46;18.83;;;8.10;;
41663;SDS011;27353;50.906;7.248;2023-12-20T04:42:12;28.92;;;11.88;;
41663;SDS011;27353;50.906;7.248;2023-12-20T04:44:37;19.67;;;10.82;;
41663;SDS011;27353;50.906;7.248;2023-12-20T04:47:03;22.85;;;9.77;;
41663;SDS011;27353;50.906;7.248;2023-12-20T04:49:29;16.95;;;7.50;;
41663;SDS011;27353;50.906;7.248;2023-12-20T04:51:54;20.30;;;8.20;;
41663;SDS011;27353;50.906;7.248;2023-12-20T04:54:20;19.10;;;10.85;;
41663;SDS011;27353;50.906;7.248;2023-12-20T04:56:46;20.45;;;8.00;;
41663;SDS011;27353;50.906;7.248;2023-12-20T04:59:12;18.25;;;8.05;;
41663;SDS011;27353;50.906;7.248;2023-12-20T05:01:38;17.40;;;6.15;;
41663;SDS011;27353;50.906;7.248;2023-12-20T05:04:04;11.57;;;6.10;;
41663;SDS011;27353;50.906;7.248;2023-12-20T05:06:30;11.77;;;6.28;;
41663;SDS011;27353;50.906;7.248;2023-12-20T05:08:55;16.20;;;7.18;;
41663;SDS011;27353;50.906;7.248;2023-12-20T05:11:21;18.00;;;7.65;;
41663;SDS011;27353;50.906;7.248;2023-12-20T05:13:47;12.45;;;6.60;;
41663;SDS011;27353;50.906;7.248;2023-12-20T05:16:12;13.10;;;5.88;;
41663;SDS011;27353;50.906;7.248;2023-12-20T05:18:39;16.15;;;6.18;;
41663;SDS011;27353;50.906;7.248;2023-12-20T05:21:05;14.10;;;5.43;;
41663;SDS011;27353;50.906;7.248;2023-12-20T05:23:31;20.02;;;5.68;;
41663;SDS011;27353;50.906;7.248;2023-12-20T05:25:56;17.05;;;8.35;;
41663;SDS011;27353;50.906;7.248;2023-12-20T05:28:22;16.05;;;6.53;;
41663;SDS011;27353;50.906;7.248;2023-12-20T05:30:47;18.35;;;7.40;;
41663;SDS011;27353;50.906;7.248;2023-12-20T05:33:13;24.20;;;8.50;;
41663;SDS011;27353;50.906;7.248;2023-12-20T05:35:39;17.65;;;7.38;;
41663;SDS011;27353;50.906;7.248;2023-12-20T05:38:04;23.08;;;7.43;;
41663;SDS011;27353;50.906;7.248;2023-12-20T05:40:30;21.80;;;6.80;;
41663;SDS011;27353;50.906;7.248;2023-12-20T05:42:56;22.23;;;7.53;;
41663;SDS011;27353;50.906;7.248;2023-12-20T05:45:21;15.00;;;6.13;;
41663;SDS011;27353;50.906;7.248;2023-12-20T05:47:47;15.07;;;7.57;;
41663;SDS011;27353;50.906;7.248;2023-12-20T05:50:12;23.42;;;7.70;;
41663;SDS011;27353;50.906;7.248;2023-12-20T05:52:38;14.57;;;7.00;;
41663;SDS011;27353;50.906;7.248;2023-12-20T05:55:04;11.57;;;8.30;;
41663;SDS011;27353;50.906;7.248;2023-12-20T05:57:29;17.17;;;7.15;;
41663;SDS011;27353;50.906;7.248;2023-12-20T05:59:55;14.95;;;8.60;;
41663;SDS011;27353;50.906;7.248;2023-12-20T06:02:21;20.83;;;7.00;;
41663;SDS011;27353;50.906;7.248;2023-12-20T06:04:47;12.93;;;6.20;;
41663;SDS011;27353;50.906;7.248;2023-12-20T06:07:12;17.02;;;7.65;;
41663;SDS011;27353;50.906;7.248;2023-12-20T06:09:38;21.25;;;9.30;;
41663;SDS011;27353;50.906;7.248;2023-12-20T06:12:04;17.60;;;7.00;;
41663;SDS011;27353;50.906;7.248;2023-12-20T06:14:30;18.70;;;8.20;;
41663;SDS011;27353;50.906;7.248;2023-12-20T06:16:56;12.82;;;6.88;;
41663;SDS011;27353;50.906;7.248;2023-12-20T06:19:22;18.95;;;6.30;;
41663;SDS011;27353;50.906;7.248;2023-12-20T06:21:48;14.05;;;6.22;;
41663;SDS011;27353;50.906;7.248;2023-12-20T06:24:13;21.98;;;6.85;;
41663;SDS011;27353;50.906;7.248;2023-12-20T06:26:39;17.92;;;7.05;;
41663;SDS011;27353;50.906;7.248;2023-12-20T06:29:05;24.10;;;7.32;;
41663;SDS011;27353;50.906;7.248;2023-12-20T06:31:30;18.83;;;8.40;;
41663;SDS011;27353;50.906;7.248;2023-12-20T06:33:58;10.77;;;7.07;;
41663;SDS011;27353;50.906;7.248;2023-12-20T06:36:25;17.75;;;6.75;;
41663;SDS011;27353;50.906;7.248;2023-12-20T06:38:53;11.80;;;6.40;;
41663;SDS011;27353;50.906;7.248;2023-12-20T06:41:19;11.75;;;6.63;;
41663;SDS011;27353;50.906;7.248;2023-12-20T06:43:45;17.58;;;6.25;;
41663;SDS011;27353;50.906;7.248;2023-12-20T06:46:10;14.65;;;6.57;;
41663;SDS011;27353;50.906;7.248;2023-12-20T06:48:38;14.02;;;8.02;;
41663;SDS011;27353;50.906;7.248;2023-12-20T06:51:05;18.40;;;7.70;;
41663;SDS011;27353;50.906;7.248;2023-12-20T06:53:31;14.38;;;7.45;;
41663;SDS011;27353;50.906;7.248;2023-12-20T06:55:57;36.80;;;13.70;;
41663;SDS011;27353;50.906;7.248;2023-12-20T06:58:23;25.48;;;10.70;;
41663;SDS011;27353;50.906;7.248;2023-12-20T07:00:48;15.85;;;9.50;;
41663;SDS011;27353;50.906;7.248;2023-12-20T07:03:15;16.80;;;8.98;;
41663;SDS011;27353;50.906;7.248;2023-12-20T07:05:41;20.77;;;9.52;;
41663;SDS011;27353;50.906;7.248;2023-12-20T07:08:07;32.28;;;10.55;;
41663;SDS011;27353;50.906;7.248;2023-12-20T07:10:32;18.88;;;8.73;;
41663;SDS011;27353;50.906;7.248;2023-12-20T07:12:58;24.00;;;8.90;;
41663;SDS011;27353;50.906;7.248;2023-12-20T07:15:24;37.20;;;9.70;;
41663;SDS011;27353;50.906;7.248;2023-12-20T07:17:50;21.13;;;11.45;;
41663;SDS011;27353;50.906;7.248;2023-12-20T07:20:15;18.02;;;7.22;;
41663;SDS011;27353;50.906;7.248;2023-12-20T07:22:41;18.70;;;7.13;;
41663;SDS011;27353;50.906;7.248;2023-12-20T07:25:07;16.60;;;6.80;;
41663;SDS011;27353;50.906;7.248;2023-12-20T07:27:33;16.23;;;7.65;;
41663;SDS011;27353;50.906;7.248;2023-12-20T07:29:58;19.90;;;7.70;;
41663;SDS011;27353;50.906;7.248;2023-12-20T07:32:24;16.92;;;6.63;;
41663;SDS011;27353;50.906;7.248;2023-12-20T07:34:50;19.13;;;6.50;;
41663;SDS011;27353;50.906;7.248;2023-12-20T07:37:15;17.95;;;7.10;;
41663;SDS011;27353;50.906;7.248;2023-12-20T07:39:41;10.68;;;5.65;;
41663;SDS011;27353;50.906;7.248;2023-12-20T07:42:07;23.17;;;7.18;;
41663;SDS011;27353;50.906;7.248;2023-12-20T07:44:34;27.65;;;6.82;;
41663;SDS011;27353;50.906;7.248;2023-12-20T07:47:03;15.50;;;6.85;;
41663;SDS011;27353;50.906;7.248;2023-12-20T07:49:30;21.65;;;8.13;;
41663;SDS011;27353;50.906;7.248;2023-12-20T07:51:55;30.33;;;7.03;;
41663;SDS011;27353;50.906;7.248;2023-12-20T07:54:21;19.15;;;6.45;;
41663;SDS011;27353;50.906;7.248;2023-12-20T07:56:47;32.30;;;10.57;;
41663;SDS011;27353;50.906;7.248;2023-12-20T07:59:13;18.73;;;8.65;;
41663;SDS011;27353;50.906;7.248;2023-12-20T08:01:39;15.45;;;6.28;;
41663;SDS011;27353;50.906;7.248;2023-12-20T08:04:05;19.65;;;7.40;;
41663;SDS011;27353;50.906;7.248;2023-12-20T08:06:31;20.35;;;6.75;;
41663;SDS011;27353;50.906;7.248;2023-12-20T08:08:56;20.95;;;8.27;;
41663;SDS011;27353;50.906;7.248;2023-12-20T08:11:22;20.38;;;8.38;;
41663;SDS011;27353;50.906;7.248;2023-12-20T08:13:48;12.48;;;6.07;;
41663;SDS011;27353;50.906;7.248;2023-12-20T08:16:13;15.93;;;7.68;;
41663;SDS011;27353;50.906;7.248;2023-12-20T08:18:40;13.75;;;6.82;;
41663;SDS011;27353;50.906;7.248;2023-12-20T08:21:06;24.88;;;9.52;;
41663;SDS011;27353;50.906;7.248;2023-12-20T08:23:34;14.88;;;8.40;;
41663;SDS011;27353;50.906;7.248;2023-12-20T08:26:04;17.58;;;8.05;;
41663;SDS011;27353;50.906;7.248;2023-12-20T08:28:31;20.70;;;7.95;;
41663;SDS011;27353;50.906;7.248;2023-12-20T08:30:56;12.27;;;7.43;;
41663;SDS011;27353;50.906;7.248;2023-12-20T08:33:22;21.20;;;7.47;;
41663;SDS011;27353;50.906;7.248;2023-12-20T08:35:47;14.90;;;8.02;;
41663;SDS011;27353;50.906;7.248;2023-12-20T08:38:13;12.93;;;6.75;;
41663;SDS011;27353;50.906;7.248;2023-12-20T08:40:39;13.90;;;6.47;;
41663;SDS011;27353;50.906;7.248;2023-12-20T08:43:05;19.25;;;8.10;;
41663;SDS011;27353;50.906;7.248;2023-12-20T08:45:30;10.73;;;7.07;;
41663;SDS011;27353;50.906;7.248;2023-12-20T08:47:56;13.45;;;6.20;;
41663;SDS011;27353;50.906;7.248;2023-12-20T08:50:21;16.77;;;6.88;;
41663;SDS011;27353;50.906;7.248;2023-12-20T08:52:47;17.50;;;7.45;;
41663;SDS011;27353;50.906;7.248;2023-12-20T08:55:13;22.92;;;7.38;;
41663;SDS011;27353;50.906;7.248;2023-12-20T08:57:40;11.35;;;5.85;;
41663;SDS011;27353;50.906;7.248;2023-12-20T09:00:05;13.35;;;7.05;;
41663;SDS011;27353;50.906;7.248;2023-12-20T09:02:32;18.20;;;7.50;;
41663;SDS011;27353;50.906;7.248;2023-12-20T09:05:01;17.58;;;6.82;;
41663;SDS011;27353;50.906;7.248;2023-12-20T09:07:28;15.88;;;7.55;;
41663;SDS011;27353;50.906;7.248;2023-12-20T09:09:56;16.95;;;7.53;;
41663;SDS011;27353;50.906;7.248;2023-12-20T09:12:22;28.60;;;8.18;;
41663;SDS011;27353;50.906;7.248;2023-12-20T09:14:49;13.13;;;5.53;;
41663;SDS011;27353;50.906;7.248;2023-12-20T09:17:16;19.23;;;8.15;;
41663;SDS011;27353;50.906;7.248;2023-12-20T09:19:42;22.08;;;10.63;;
41663;SDS011;27353;50.906;7.248;2023-12-20T09:22:12;23.25;;;8.73;;
41663;SDS011;27353;50.906;7.248;2023-12-20T09:24:38;14.07;;;7.90;;
41663;SDS011;27353;50.906;7.248;2023-12-20T09:27:04;17.75;;;9.63;;
41663;SDS011;27353;50.906;7.248;2023-12-20T09:29:32;17.52;;;7.97;;
41663;SDS011;27353;50.906;7.248;2023-12-20T09:31:58;14.70;;;7.22;;
41663;SDS011;27353;50.906;7.248;2023-12-20T09:34:24;25.02;;;8.02;;
41663;SDS011;27353;50.906;7.248;2023-12-20T09:36:50;20.75;;;7.82;;
41663;SDS011;27353;50.906;7.248;2023-12-20T09:39:17;14.52;;;7.88;;
41663;SDS011;27353;50.906;7.248;2023-12-20T09:44:29;14.95;;;6.88;;
41663;SDS011;27353;50.906;7.248;2023-12-20T09:46:55;18.20;;;7.18;;
41663;SDS011;27353;50.906;7.248;2023-12-20T09:49:22;21.80;;;8.82;;
41663;SDS011;27353;50.906;7.248;2023-12-20T09:51:49;12.13;;;5.75;;
41663;SDS011;27353;50.906;7.248;2023-12-20T09:54:19;22.63;;;9.48;;
41663;SDS011;27353;50.906;7.248;2023-12-20T09:56:46;14.07;;;7.85;;
41663;SDS011;27353;50.906;7.248;2023-12-20T09:59:12;16.75;;;6.90;;
41663;SDS011;27353;50.906;7.248;2023-12-20T10:01:38;16.90;;;6.90;;
41663;SDS011;27353;50.906;7.248;2023-12-20T10:04:05;18.88;;;7.65;;
41663;SDS011;27353;50.906;7.248;2023-12-20T10:06:34;21.63;;;7.60;;
41663;SDS011;27353;50.906;7.248;2023-12-20T10:09:01;9.45;;;6.03;;
41663;SDS011;27353;50.906;7.248;2023-12-20T10:11:27;14.15;;;5.65;;
41663;SDS011;27353;50.906;7.248;2023-12-20T10:13:58;27.15;;;6.57;;
41663;SDS011;27353;50.906;7.248;2023-12-20T10:16:26;21.08;;;9.13;;
41663;SDS011;27353;50.906;7.248;2023-12-20T10:18:52;13.18;;;6.00;;
41663;SDS011;27353;50.906;7.248;2023-12-20T10:21:19;13.13;;;7.07;;
41663;SDS011;27353;50.906;7.248;2023-12-20T10:23:45;15.20;;;9.57;;
41663;SDS011;27353;50.906;7.248;2023-12-20T10:26:18;13.18;;;6.20;;
41663;SDS011;27353;50.906;7.248;2023-12-20T10:28:45;11.30;;;5.53;;
41663;SDS011;27353;50.906;7.248;2023-12-20T10:31:10;23.08;;;7.47;;
41663;SDS011;27353;50.906;7.248;2023-12-20T10:33:56;28.63;;;7.30;;
41663;SDS011;27353;50.906;7.248;2023-12-20T10:36:26;15.05;;;5.78;;
41663;SDS011;27353;50.906;7.248;2023-12-20T10:38:52;10.55;;;5.75;;
41663;SDS011;27353;50.906;7.248;2023-12-20T10:41:21;14.82;;;6.82;;
41663;SDS011;27353;50.906;7.248;2023-12-20T10:43:50;15.73;;;6.63;;
41663;SDS011;27353;50.906;7.248;2023-12-20T10:46:20;17.97;;;5.87;;
41663;SDS011;27353;50.906;7.248;2023-12-20T10:48:46;10.90;;;6.28;;
41663;SDS011;27353;50.906;7.248;2023-12-20T10:51:13;12.25;;;6.10;;
41663;SDS011;27353;50.906;7.248;2023-12-20T10:53:43;24.88;;;7.88;;
41663;SDS011;27353;50.906;7.248;2023-12-20T10:56:11;10.63;;;5.28;;
41663;SDS011;27353;50.906;7.248;2023-12-20T10:58:42;17.23;;;7.38;;
41663;SDS011;27353;50.906;7.248;2023-12-20T11:01:08;23.08;;;9.40;;
41663;SDS011;27353;50.906;7.248;2023-12-20T11:03:36;19.45;;;6.85;;
41663;SDS011;27353;50.906;7.248;2023-12-20T11:06:24;16.80;;;6.18;;
41663;SDS011;27353;50.906;7.248;2023-12-20T11:09:08;13.13;;;6.28;;
41663;SDS011;27353;50.906;7.248;2023-12-20T11:17:07;13.25;;;7.10;;
41663;SDS011;27353;50.906;7.248;2023-12-20T11:19:32;16.30;;;6.28;;
41663;SDS011;27353;50.906;7.248;2023-12-20T11:22:01;21.05;;;7.47;;
41663;SDS011;27353;50.906;7.248;2023-12-20T11:24:30;25.35;;;5.85;;
41663;SDS011;27353;50.906;7.248;2023-12-20T11:26:57;14.35;;;6.05;;
41663;SDS011;27353;50.906;7.248;2023-12-20T11:29:33;16.08;;;5.95;;
41663;SDS011;27353;50.906;7.248;2023-12-20T11:32:03;12.25;;;6.03;;
41663;SDS011;27353;50.906;7.248;2023-12-20T11:34:57;15.77;;;7.75;;
41663;SDS011;27353;50.906;7.248;2023-12-20T11:37:30;25.15;;;8.90;;
41663;SDS011;27353;50.906;7.248;2023-12-20T11:40:03;14.35;;;6.18;;
41663;SDS011;27353;50.906;7.248;2023-12-20T11:42:32;12.07;;;5.70;;
41663;SDS011;27353;50.906;7.248;2023-12-20T11:45:20;10.95;;;5.53;;
41663;SDS011;27353;50.906;7.248;2023-12-20T11:47:49;29.98;;;7.28;;
41663;SDS011;27353;50.906;7.248;2023-12-20T11:50:16;11.35;;;6.95;;
41663;SDS011;27353;50.906;7.248;2023-12-20T11:52:42;25.52;;;6.72;;
41663;SDS011;27353;50.906;7.248;2023-12-20T11:55:08;18.10;;;7.60;;
41663;SDS011;27353;50.906;7.248;2023-12-20T11:57:34;14.63;;;6.72;;
41663;SDS011;27353;50.906;7.248;2023-12-20T12:00:00;13.15;;;5.40;;
41663;SDS011;27353;50.906;7.248;2023-12-20T12:02:27;13.65;;;5.75;;
41663;SDS011;27353;50.906;7.248;2023-12-20T12:04:53;15.40;;;6.35;;
41663;SDS011;27353;50.906;7.248;2023-12-20T12:07:19;14.63;;;6.22;;
41663;SDS011;27353;50.906;7.248;2023-12-20T12:09:45;12.13;;;6.22;;
41663;SDS011;27353;50.906;7.248;2023-12-20T12:12:11;12.38;;;5.60;;
41663;SDS011;27353;50.906;7.248;2023-12-20T12:14:37;26.38;;;8.30;;
41663;SDS011;27353;50.906;7.248;2023-12-20T12:17:09;10.70;;;6.13;;
41663;SDS011;27353;50.906;7.248;2023-12-20T12:19:39;33.17;;;14.45;;
41663;SDS011;27353;50.906;7.248;2023-12-20T12:22:09;13.73;;;6.57;;
41663;SDS011;27353;50.906;7.248;2023-12-20T12:24:39;16.20;;;6.72;;
41663;SDS011;27353;50.906;7.248;2023-12-20T12:27:08;13.70;;;6.57;;
41663;SDS011;27353;50.906;7.248;2023-12-20T12:29:34;9.23;;;6.63;;
41663;SDS011;27353;50.906;7.248;2023-12-20T12:32:00;18.88;;;6.30;;
41663;SDS011;27353;50.906;7.248;2023-12-20T12:34:29;17.55;;;6.25;;
41663;SDS011;27353;50.906;7.248;2023-12-20T12:36:55;19.33;;;6.65;;
41663;SDS011;27353;50.906;7.248;2023-12-20T12:39:22;20.75;;;7.15;;
41663;SDS011;27353;50.906;7.248;2023-12-20T12:41:52;14.93;;;7.82;;
41663;SDS011;27353;50.906;7.248;2023-12-20T12:44:18;13.80;;;6.25;;
41663;SDS011;27353;50.906;7.248;2023-12-20T12:46:47;16.35;;;7.28;;
41663;SDS011;27353;50.906;7.248;2023-12-20T12:49:15;18.10;;;9.18;;
41663;SDS011;27353;50.906;7.248;2023-12-20T12:51:41;14.57;;;6.72;;
41663;SDS011;27353;50.906;7.248;2023-12-20T12:54:07;14.05;;;6.72;;
41663;SDS011;27353;50.906;7.248;2023-12-20T12:56:34;11.95;;;5.88;;
41663;SDS011;27353;50.906;7.248;2023-12-20T12:59:00;12.27;;;6.43;;
41663;SDS011;27353;50.906;7.248;2023-12-20T13:01:26;21.00;;;7.45;;
41663;SDS011;27353;50.906;7.248;2023-12-20T13:03:52;11.35;;;5.18;;
41663;SDS011;27353;50.906;7.248;2023-12-20T13:06:19;16.27;;;7.68;;
41663;SDS011;27353;50.906;7.248;2023-12-20T13:08:45;10.57;;;6.32;;
41663;SDS011;27353;50.906;7.248;2023-12-20T13:11:11;17.35;;;7.32;;
41663;SDS011;27353;50.906;7.248;2023-12-20T13:13:36;7.55;;;5.22;;
41663;SDS011;27353;50.906;7.248;2023-12-20T13:16:02;17.88;;;8.52;;
41663;SDS011;27353;50.906;7.248;2023-12-20T13:18:29;19.60;;;8.15;;
41663;SDS011;27353;50.906;7.248;2023-12-20T13:20:54;23.10;;;7.63;;
41663;SDS011;27353;50.906;7.248;2023-12-20T13:23:20;16.60;;;7.05;;
41663;SDS011;27353;50.906;7.248;2023-12-20T13:25:46;12.57;;;7.18;;
41663;SDS011;27353;50.906;7.248;2023-12-20T13:28:12;15.43;;;8.05;;
41663;SDS011;27353;50.906;7.248;2023-12-20T13:30:38;21.85;;;10.32;;
41663;SDS011;27353;50.906;7.248;2023-12-20T13:33:04;14.30;;;7.80;;
41663;SDS011;27353;50.906;7.248;2023-12-20T13:35:30;16.20;;;7.93;;
41663;SDS011;27353;50.906;7.248;2023-12-20T13:37:57;24.55;;;8.18;;
41663;SDS011;27353;50.906;7.248;2023-12-20T13:40:23;18.75;;;9.77;;
41663;SDS011;27353;50.906;7.248;2023-12-20T13:42:49;14.23;;;6.78;;
41663;SDS011;27353;50.906;7.248;2023-12-20T13:45:15;15.25;;;8.85;;
41663;SDS011;27353;50.906;7.248;2023-12-20T13:47:41;13.38;;;6.78;;
41663;SDS011;27353;50.906;7.248;2023-12-20T13:50:07;14.48;;;8.63;;
41663;SDS011;27353;50.906;7.248;2023-12-20T13:52:33;18.20;;;8.10;;
41663;SDS011;27353;50.906;7.248;2023-12-20T13:54:59;15.88;;;8.48;;
41663;SDS011;27353;50.906;7.248;2023-12-20T13:57:24;27.08;;;11.55;;
41663;SDS011;27353;50.906;7.248;2023-12-20T13:59:50;15.68;;;9.02;;
41663;SDS011;27353;50.906;7.248;2023-12-20T14:02:16;16.77;;;9.35;;
41663;SDS011;27353;50.906;7.248;2023-12-20T14:04:42;18.55;;;8.50;;
41663;SDS011;27353;50.906;7.248;2023-12-20T14:07:07;25.42;;;9.98;;
41663;SDS011;27353;50.906;7.248;2023-12-20T14:09:34;12.63;;;8.85;;
41663;SDS011;27353;50.906;7.248;2023-12-20T14:12:00;16.67;;;9.13;;
41663;SDS011;27353;50.906;7.248;2023-12-20T14:14:26;15.18;;;9.43;;
41663;SDS011;27353;50.906;7.248;2023-12-20T14:16:51;13.70;;;7.15;;
41663;SDS011;27353;50.906;7.248;2023-12-20T14:19:17;20.98;;;9.27;;
41663;SDS011;27353;50.906;7.248;2023-12-20T14:21:43;15.80;;;9.52;;
41663;SDS011;27353;50.906;7.248;2023-12-20T14:24:12;20.52;;;9.38;;
41663;SDS011;27353;50.906;7.248;2023-12-20T14:26:40;18.40;;;9.43;;
41663;SDS011;27353;50.906;7.248;2023-12-20T14:29:06;11.88;;;7.80;;
41663;SDS011;27353;50.906;7.248;2023-12-20T14:31:32;17.90;;;7.38;;
41663;SDS011;27353;50.906;7.248;2023-12-20T14:33:58;19.50;;;7.75;;
41663;SDS011;27353;50.906;7.248;2023-12-20T14:36:26;16.75;;;9.38;;
41663;SDS011;27353;50.906;7.248;2023-12-20T14:38:52;18.92;;;9.95;;